createdAt,value
2019-03-28T00:01:31.948Z,9.47
2019-03-28T00:03:57.718Z,8.93
2019-03-28T00:06:23.501Z,9.57
2019-03-28T00:08:49.482Z,9.93
2019-03-28T00:11:15.261Z,10.03
2019-03-28T00:13:41.059Z,10.43
2019-03-28T00:16:06.846Z,11.57
2019-03-28T00:18:32.651Z,12.13
2019-03-28T00:20:58.427Z,12.57
2019-03-28T00:23:42.775Z,12.30
2019-03-28T00:26:08.558Z,12.90
2019-03-28T00:28:34.354Z,13.60
2019-03-28T00:31:00.251Z,13.30
2019-03-28T00:33:26.043Z,13.57
2019-03-28T00:35:51.828Z,13.37
2019-03-28T00:38:17.612Z,14.60
2019-03-28T00:40:43.399Z,14.00
2019-03-28T00:43:09.194Z,15.13
2019-03-28T00:45:35.585Z,14.43
2019-03-28T00:48:02.354Z,12.67
2019-03-28T00:50:28.199Z,13.87
2019-03-28T00:52:54.007Z,15.60
2019-03-28T00:55:19.925Z,14.60
2019-03-28T00:57:45.715Z,13.97
2019-03-28T01:00:11.687Z,13.73
2019-03-28T01:02:37.600Z,13.57
2019-03-28T01:05:04.578Z,14.37
2019-03-28T01:07:30.362Z,13.07
2019-03-28T01:09:56.167Z,13.13
2019-03-28T01:12:21.949Z,13.37
2019-03-28T01:14:47.737Z,12.87
2019-03-28T01:17:13.523Z,11.77
2019-03-28T01:19:39.312Z,13.07
2019-03-28T01:22:06.411Z,11.90
2019-03-28T01:24:32.221Z,12.20
2019-03-28T01:26:58.937Z,11.40
2019-03-28T01:29:26.942Z,13.10
2019-03-28T01:31:52.724Z,12.50
2019-03-28T01:34:18.814Z,13.03
2019-03-28T01:36:44.604Z,12.47
2019-03-28T01:39:10.391Z,12.57
2019-03-28T01:41:36.199Z,12.63
2019-03-28T01:44:01.981Z,13.30
2019-03-28T01:46:28.037Z,13.57
2019-03-28T01:48:54.666Z,12.73
2019-03-28T01:51:20.449Z,13.47
2019-03-28T01:53:46.239Z,11.07
2019-03-28T01:56:12.044Z,11.50
2019-03-28T01:58:37.827Z,12.80
2019-03-28T02:01:04.211Z,12.47
2019-03-28T02:03:30.206Z,11.80
2019-03-28T02:05:56.017Z,12.90
2019-03-28T02:08:24.663Z,12.47
2019-03-28T02:10:49.574Z,12.70
2019-03-28T02:13:15.380Z,12.97
2019-03-28T02:15:41.171Z,12.43
2019-03-28T02:18:06.956Z,12.77
2019-03-28T02:20:32.753Z,12.83
2019-03-28T02:23:00.973Z,12.17
2019-03-28T02:25:26.827Z,12.50
2019-03-28T02:27:53.120Z,11.93
2019-03-28T02:30:22.721Z,12.43
2019-03-28T02:32:49.212Z,12.67
2019-03-28T02:35:16.008Z,13.17
2019-03-28T02:37:41.781Z,13.07
2019-03-28T02:40:08.120Z,11.27
2019-03-28T02:42:33.939Z,12.70
2019-03-28T02:44:59.719Z,13.67
2019-03-28T02:47:25.500Z,13.23
2019-03-28T02:49:51.284Z,12.47
2019-03-28T02:52:17.091Z,15.03
2019-03-28T02:54:43.353Z,14.43
2019-03-28T02:57:09.152Z,14.70
2019-03-28T02:59:34.940Z,14.50
2019-03-28T03:02:00.746Z,14.83
2019-03-28T03:04:26.623Z,14.60
2019-03-28T03:06:52.428Z,13.77
2019-03-28T03:09:18.202Z,15.07
2019-03-28T03:11:44.111Z,14.77
2019-03-28T03:14:09.874Z,14.70
2019-03-28T03:16:35.674Z,14.17
2019-03-28T03:19:01.463Z,15.23
2019-03-28T03:21:27.274Z,15.03
2019-03-28T03:23:53.067Z,15.07
2019-03-28T03:26:18.857Z,15.40
2019-03-28T03:28:44.641Z,14.17
2019-03-28T03:31:10.448Z,14.70
2019-03-28T03:33:37.746Z,15.03
2019-03-28T03:36:04.102Z,13.50
2019-03-28T03:38:29.908Z,16.27
2019-03-28T03:40:55.721Z,14.70
2019-03-28T03:43:23.047Z,15.50
2019-03-28T03:45:49.181Z,16.17
2019-03-28T03:48:14.955Z,15.50
2019-03-28T03:50:40.751Z,15.43
2019-03-28T03:53:07.512Z,15.17
2019-03-28T03:55:33.426Z,15.37
2019-03-28T03:58:14.393Z,15.17
2019-03-28T04:00:30.708Z,14.20
2019-03-28T04:02:56.500Z,14.80
2019-03-28T04:05:22.279Z,14.80
2019-03-28T04:07:48.073Z,15.80
2019-03-28T04:10:13.847Z,14.47
2019-03-28T04:12:39.646Z,15.20
2019-03-28T04:15:05.606Z,15.77
2019-03-28T04:17:31.429Z,16.50
2019-03-28T04:19:57.211Z,14.03
2019-03-28T04:22:23.015Z,14.87
2019-03-28T04:24:48.825Z,14.50
2019-03-28T04:27:14.617Z,14.73
2019-03-28T04:29:40.393Z,15.63
2019-03-28T04:32:06.188Z,15.07
2019-03-28T04:34:31.977Z,15.43
2019-03-28T04:36:57.791Z,15.90
2019-03-28T04:39:23.582Z,16.17
2019-03-28T04:41:49.582Z,15.07
2019-03-28T04:44:15.670Z,15.73
2019-03-28T04:46:41.456Z,15.30
2019-03-28T04:49:07.242Z,16.47
2019-03-28T04:51:33.135Z,16.23
2019-03-28T04:53:58.916Z,17.30
2019-03-28T04:56:24.731Z,16.73
2019-03-28T04:58:50.510Z,15.10
2019-03-28T05:01:16.290Z,16.27
2019-03-28T05:03:42.086Z,16.47
2019-03-28T05:06:07.873Z,16.20
2019-03-28T05:08:33.679Z,14.90
2019-03-28T05:10:59.462Z,14.63
2019-03-28T05:13:25.243Z,15.33
2019-03-28T05:15:51.027Z,14.10
2019-03-28T05:18:16.820Z,14.03
2019-03-28T05:20:42.606Z,14.07
2019-03-28T05:23:08.430Z,13.43
2019-03-28T05:25:34.320Z,13.90
2019-03-28T05:28:00.121Z,13.17
2019-03-28T05:30:25.901Z,13.50
2019-03-28T05:32:51.712Z,12.67
2019-03-28T05:35:17.481Z,13.90
2019-03-28T05:37:43.276Z,12.13
2019-03-28T05:40:09.454Z,13.53
2019-03-28T05:42:35.290Z,13.53
2019-03-28T05:45:01.059Z,13.97
2019-03-28T05:47:26.838Z,12.57
2019-03-28T05:49:52.632Z,13.93
2019-03-28T05:52:18.411Z,12.10
2019-03-28T05:54:44.205Z,13.03
2019-03-28T05:57:09.988Z,12.30
2019-03-28T05:59:35.788Z,14.07
2019-03-28T06:02:01.563Z,12.00
2019-03-28T06:04:27.352Z,12.17
2019-03-28T06:06:53.141Z,13.30
2019-03-28T06:09:19.342Z,13.03
2019-03-28T06:11:45.436Z,14.10
2019-03-28T06:14:11.247Z,14.67
2019-03-28T06:16:37.037Z,12.80
2019-03-28T06:19:02.844Z,14.00
2019-03-28T06:21:28.627Z,13.33
2019-03-28T06:23:54.441Z,13.80
2019-03-28T06:26:20.226Z,14.60
2019-03-28T06:28:46.023Z,15.30
2019-03-28T06:31:11.800Z,14.07
2019-03-28T06:33:38.517Z,15.00
2019-03-28T06:36:04.405Z,13.80
2019-03-28T06:38:30.195Z,14.73
2019-03-28T06:40:55.992Z,14.53
2019-03-28T06:43:21.768Z,14.03
2019-03-28T06:45:47.569Z,15.23
2019-03-28T06:48:13.362Z,15.93
2019-03-28T06:50:39.164Z,15.00
2019-03-28T06:53:04.948Z,16.13
2019-03-28T06:55:30.744Z,15.67
2019-03-28T06:57:56.525Z,16.13
2019-03-28T07:00:22.323Z,14.97
2019-03-28T07:02:48.110Z,15.03
2019-03-28T07:05:13.904Z,16.53
2019-03-28T07:07:39.681Z,15.07
2019-03-28T07:10:05.876Z,16.33
2019-03-28T07:12:31.673Z,17.03
2019-03-28T07:14:59.599Z,14.80
2019-03-28T07:17:25.169Z,16.63
2019-03-28T07:19:50.943Z,16.83
2019-03-28T07:22:16.741Z,15.70
2019-03-28T07:24:42.529Z,13.93
2019-03-28T07:27:08.335Z,14.87
2019-03-28T07:29:34.114Z,13.27
2019-03-28T07:31:59.917Z,13.80
2019-03-28T07:34:25.696Z,13.00
2019-03-28T07:36:51.490Z,14.10
2019-03-28T07:39:19.063Z,11.30
2019-03-28T07:41:45.018Z,11.50
2019-03-28T07:44:10.785Z,10.13
2019-03-28T07:46:36.641Z,11.73
2019-03-28T07:49:02.469Z,11.83
2019-03-28T07:51:28.269Z,10.60
2019-03-28T07:53:54.050Z,10.90
2019-03-28T07:56:19.860Z,11.17
2019-03-28T07:58:45.631Z,11.07
2019-03-28T08:01:11.449Z,11.13
2019-03-28T08:03:39.917Z,10.03
2019-03-28T08:06:05.036Z,9.63
2019-03-28T08:08:38.753Z,10.33
2019-03-28T08:10:58.504Z,9.83
2019-03-28T08:13:24.295Z,9.00
2019-03-28T08:15:50.279Z,9.23
2019-03-28T08:18:16.078Z,9.27
2019-03-28T08:20:41.869Z,8.23
2019-03-28T08:23:07.673Z,8.17
2019-03-28T08:25:33.461Z,9.57
2019-03-28T08:27:59.252Z,8.27
2019-03-28T08:30:33.429Z,8.40
2019-03-28T08:32:59.239Z,8.47
2019-03-28T08:35:25.014Z,8.60
2019-03-28T08:37:50.911Z,7.10
2019-03-28T08:40:20.508Z,7.47
2019-03-28T08:42:46.309Z,6.97
2019-03-28T08:45:12.190Z,7.03
2019-03-28T08:47:37.990Z,6.27
2019-03-28T08:50:05.284Z,5.77
2019-03-28T08:52:31.095Z,5.80
2019-03-28T08:54:56.880Z,6.33
2019-03-28T08:57:22.689Z,6.50
2019-03-28T08:59:48.468Z,6.30
2019-03-28T09:02:14.271Z,6.13
2019-03-28T09:04:40.074Z,5.57
2019-03-28T09:07:05.889Z,5.53
2019-03-28T09:09:31.669Z,5.40
2019-03-28T09:11:57.459Z,5.30
2019-03-28T09:14:23.252Z,5.17
2019-03-28T09:16:49.027Z,4.83
2019-03-28T09:19:14.825Z,4.70
2019-03-28T09:21:40.614Z,4.73
2019-03-28T09:24:06.428Z,3.90
2019-03-28T09:26:32.217Z,4.63
2019-03-28T09:28:58.012Z,3.93
2019-03-28T09:31:23.903Z,5.17
2019-03-28T09:33:49.696Z,4.90
2019-03-28T09:36:15.488Z,4.87
2019-03-28T09:38:41.360Z,4.83
2019-03-28T09:41:07.146Z,4.27
2019-03-28T09:43:32.942Z,5.13
2019-03-28T09:46:00.350Z,4.50
2019-03-28T09:48:26.437Z,5.13
2019-03-28T09:50:52.222Z,4.97
2019-03-28T09:53:18.016Z,5.10
2019-03-28T09:55:43.796Z,4.80
2019-03-28T09:58:09.598Z,5.30
2019-03-28T10:00:35.387Z,5.40
2019-03-28T10:03:01.190Z,5.30
2019-03-28T10:05:26.978Z,5.23
2019-03-28T10:07:52.777Z,5.20
2019-03-28T10:10:18.571Z,4.57
2019-03-28T10:12:44.373Z,4.80
2019-03-28T10:15:10.260Z,4.97
2019-03-28T10:17:36.038Z,4.37
2019-03-28T10:20:01.843Z,4.67
2019-03-28T10:22:27.628Z,4.30
2019-03-28T10:24:53.427Z,4.03
2019-03-28T10:27:19.490Z,3.97
2019-03-28T10:29:45.499Z,4.03
2019-03-28T10:32:11.286Z,4.73
2019-03-28T10:34:37.186Z,3.90
2019-03-28T10:37:02.976Z,4.60
2019-03-28T10:39:28.774Z,4.00
2019-03-28T10:41:54.870Z,3.83
2019-03-28T10:44:20.965Z,3.90
2019-03-28T10:46:46.760Z,4.30
2019-03-28T10:49:12.550Z,4.37
2019-03-28T10:51:38.335Z,4.80
2019-03-28T10:54:04.133Z,4.63
2019-03-28T10:56:29.928Z,4.47
2019-03-28T10:58:55.715Z,4.50
2019-03-28T11:01:36.108Z,4.90
2019-03-28T11:03:49.224Z,4.77
2019-03-28T11:06:15.000Z,4.93
2019-03-28T11:08:40.798Z,4.60
2019-03-28T11:11:06.574Z,4.40
2019-03-28T11:13:32.379Z,4.40
2019-03-28T11:15:58.160Z,3.77
2019-03-28T11:18:23.979Z,4.33
2019-03-28T11:20:49.754Z,4.33
2019-03-28T11:23:15.566Z,4.37
2019-03-28T11:25:41.354Z,4.20
2019-03-28T11:28:07.143Z,3.93
2019-03-28T11:30:32.943Z,3.63
2019-03-28T11:32:58.736Z,3.70
2019-03-28T11:35:24.577Z,3.60
2019-03-28T11:37:50.466Z,3.20
2019-03-28T11:40:16.277Z,3.73
2019-03-28T11:42:42.048Z,3.70
2019-03-28T11:45:09.892Z,3.80
2019-03-28T11:47:35.853Z,3.73
2019-03-28T11:50:08.025Z,3.40
2019-03-28T11:52:33.907Z,3.10
2019-03-28T11:54:59.706Z,3.53
2019-03-28T11:57:25.489Z,3.17
2019-03-28T11:59:51.279Z,3.00
2019-03-28T12:02:20.379Z,3.03
2019-03-28T12:04:44.782Z,3.30
2019-03-28T12:07:10.572Z,3.40
2019-03-28T12:09:36.373Z,2.57
2019-03-28T12:12:02.187Z,3.20
2019-03-28T12:14:27.976Z,3.30
2019-03-28T12:16:53.770Z,3.07
2019-03-28T12:19:19.565Z,2.97
2019-03-28T12:21:45.383Z,3.47
2019-03-28T12:24:11.144Z,3.50
2019-03-28T12:26:37.775Z,3.60
2019-03-28T12:29:05.766Z,4.10
2019-03-28T12:31:33.254Z,4.13
2019-03-28T12:33:58.960Z,4.00
2019-03-28T12:36:24.757Z,4.77
2019-03-28T12:38:50.549Z,4.47
2019-03-28T12:41:16.354Z,4.33
2019-03-28T12:43:42.149Z,3.70
2019-03-28T12:46:07.947Z,3.90
2019-03-28T12:48:33.725Z,3.70
2019-03-28T12:51:00.745Z,3.60
2019-03-28T12:53:26.817Z,3.53
2019-03-28T12:55:52.616Z,4.10
2019-03-28T12:58:18.395Z,3.27
2019-03-28T13:00:44.191Z,4.03
2019-03-28T13:03:09.985Z,3.67
2019-03-28T13:05:35.782Z,5.70
2019-03-28T13:08:01.566Z,24.07
2019-03-28T13:10:27.532Z,5.17
2019-03-28T13:12:53.482Z,4.80
2019-03-28T13:15:19.282Z,4.33
2019-03-28T13:17:45.073Z,4.23
2019-03-28T13:20:11.552Z,4.80
2019-03-28T13:22:37.362Z,4.07
2019-03-28T13:25:05.057Z,4.20
2019-03-28T13:27:30.860Z,3.40
2019-03-28T13:29:56.650Z,3.40
2019-03-28T13:32:22.451Z,3.40
2019-03-28T13:34:48.236Z,3.03
2019-03-28T13:37:14.044Z,2.80
2019-03-28T13:39:39.832Z,3.17
2019-03-28T13:42:05.629Z,2.87
2019-03-28T13:44:31.416Z,3.10
2019-03-28T13:46:57.280Z,3.03
2019-03-28T13:49:23.079Z,3.30
2019-03-28T13:51:48.923Z,3.47
2019-03-28T13:54:14.771Z,3.40
2019-03-28T13:56:40.547Z,3.40
2019-03-28T13:59:06.348Z,3.10
2019-03-28T14:01:32.125Z,3.00
2019-03-28T14:03:57.930Z,2.63
2019-03-28T14:06:24.841Z,2.83
2019-03-28T14:08:50.981Z,2.60
2019-03-28T14:11:16.778Z,2.60
2019-03-28T14:13:42.571Z,2.90
2019-03-28T14:16:10.304Z,3.10
2019-03-28T14:18:36.107Z,2.93
2019-03-28T14:21:01.905Z,3.00
2019-03-28T14:23:27.712Z,3.57
2019-03-28T14:25:53.488Z,3.20
2019-03-28T14:28:19.285Z,3.20
2019-03-28T14:30:45.781Z,3.00
2019-03-28T14:33:15.582Z,3.50
2019-03-28T14:35:42.585Z,3.60
2019-03-28T14:38:08.373Z,3.63
2019-03-28T14:40:34.157Z,4.60
2019-03-28T14:42:59.994Z,5.03
2019-03-28T14:45:25.777Z,4.57
2019-03-28T14:47:51.580Z,4.20
2019-03-28T14:50:21.360Z,3.43
2019-03-28T14:52:47.808Z,3.40
2019-03-28T14:55:13.603Z,3.50
2019-03-28T14:57:39.495Z,3.47
2019-03-28T15:00:15.019Z,3.37
2019-03-28T15:02:40.877Z,3.97
2019-03-28T15:05:06.751Z,3.60
2019-03-28T15:07:32.541Z,3.90
2019-03-28T15:09:58.324Z,4.10
2019-03-28T15:12:24.101Z,4.17
2019-03-28T15:14:49.907Z,4.07
2019-03-28T15:17:15.715Z,4.27
2019-03-28T15:19:41.500Z,3.97
2019-03-28T15:22:07.278Z,4.40
2019-03-28T15:24:33.088Z,3.80
2019-03-28T15:26:58.892Z,4.00
2019-03-28T15:29:24.677Z,4.00
2019-03-28T15:31:50.479Z,4.50
2019-03-28T15:34:16.276Z,3.90
2019-03-28T15:36:42.276Z,3.70
2019-03-28T15:39:08.065Z,3.30
2019-03-28T15:41:33.841Z,3.60
2019-03-28T15:43:59.636Z,3.87
2019-03-28T15:46:27.878Z,3.97
2019-03-28T15:48:53.843Z,3.40
2019-03-28T15:51:19.645Z,3.40
2019-03-28T15:53:45.438Z,3.47
2019-03-28T15:56:11.228Z,3.60
2019-03-28T15:58:37.020Z,3.40
2019-03-28T16:01:02.916Z,3.23
2019-03-28T16:03:28.706Z,3.50
2019-03-28T16:05:58.431Z,2.90
2019-03-28T16:08:22.605Z,3.30
2019-03-28T16:10:48.401Z,3.40
2019-03-28T16:13:14.406Z,3.87
2019-03-28T16:15:40.256Z,3.53
2019-03-28T16:18:06.040Z,4.13
2019-03-28T16:20:31.839Z,3.90
2019-03-28T16:22:58.288Z,4.13
2019-03-28T16:25:24.521Z,4.03
2019-03-28T16:27:50.281Z,4.30
2019-03-28T16:30:19.897Z,4.53
2019-03-28T16:32:45.691Z,4.67
2019-03-28T16:35:11.593Z,3.43
2019-03-28T16:37:37.384Z,4.50
2019-03-28T16:40:04.088Z,4.00
2019-03-28T16:42:30.184Z,3.40
2019-03-28T16:44:56.136Z,3.90
2019-03-28T16:47:21.971Z,4.13
2019-03-28T16:49:47.748Z,5.10
2019-03-28T16:52:13.542Z,4.20
2019-03-28T16:54:39.329Z,4.60
2019-03-28T16:57:05.130Z,4.20
2019-03-28T16:59:30.929Z,4.30
2019-03-28T17:01:56.728Z,4.50
2019-03-28T17:04:23.054Z,4.87
2019-03-28T17:06:49.313Z,4.67
2019-03-28T17:09:15.103Z,4.23
2019-03-28T17:11:40.900Z,4.40
2019-03-28T17:14:06.682Z,4.50
2019-03-28T17:16:32.483Z,5.07
2019-03-28T17:18:58.272Z,5.20
2019-03-28T17:21:24.072Z,5.57
2019-03-28T17:23:49.874Z,5.43
2019-03-28T17:26:15.700Z,5.57
2019-03-28T17:28:41.783Z,5.23
2019-03-28T17:31:07.582Z,4.40
2019-03-28T17:33:33.366Z,5.03
2019-03-28T17:35:59.170Z,4.57
2019-03-28T17:38:24.960Z,4.70
2019-03-28T17:40:50.758Z,5.47
2019-03-28T17:43:16.560Z,7.57
2019-03-28T17:45:42.445Z,6.73
2019-03-28T17:48:08.451Z,7.00
2019-03-28T17:50:34.247Z,6.97
2019-03-28T17:53:00.051Z,6.10
2019-03-28T17:55:26.154Z,5.97
2019-03-28T17:57:51.949Z,6.03
2019-03-28T18:00:17.933Z,5.93
2019-03-28T18:02:43.734Z,6.90
2019-03-28T18:05:12.087Z,6.07
2019-03-28T18:07:37.254Z,6.63
2019-03-28T18:10:04.540Z,6.00
2019-03-28T18:12:30.640Z,6.10
2019-03-28T18:14:56.447Z,6.10
2019-03-28T18:17:22.370Z,5.77
2019-03-28T18:19:48.153Z,6.40
2019-03-28T18:22:13.951Z,5.63
2019-03-28T18:24:39.960Z,5.77
2019-03-28T18:27:06.013Z,5.90
2019-03-28T18:29:31.993Z,5.27
2019-03-28T18:31:57.785Z,5.40
2019-03-28T18:34:23.591Z,5.33
2019-03-28T18:36:49.384Z,5.20
2019-03-28T18:39:15.246Z,4.90
2019-03-28T18:41:41.062Z,5.27
2019-03-28T18:44:06.918Z,4.43
2019-03-28T18:46:32.709Z,4.63
2019-03-28T18:48:58.642Z,5.23
2019-03-28T18:51:24.429Z,4.80
2019-03-28T18:53:50.316Z,5.33
2019-03-28T18:56:16.148Z,5.20
2019-03-28T18:58:41.953Z,5.73
2019-03-28T19:01:07.860Z,5.23
2019-03-28T19:03:33.648Z,5.00
2019-03-28T19:05:59.562Z,5.50
2019-03-28T19:08:25.339Z,5.60
2019-03-28T19:10:51.276Z,5.13
2019-03-28T19:13:17.041Z,5.20
2019-03-28T19:15:42.838Z,4.70
2019-03-28T19:18:08.629Z,4.57
2019-03-28T19:20:35.852Z,4.70
2019-03-28T19:23:01.823Z,4.60
2019-03-28T19:25:27.652Z,5.33
2019-03-28T19:27:53.422Z,4.90
2019-03-28T19:30:26.156Z,4.83
2019-03-28T19:32:51.944Z,5.60
2019-03-28T19:35:17.737Z,5.70
2019-03-28T19:37:43.713Z,5.43
2019-03-28T19:40:09.820Z,5.57
2019-03-28T19:42:36.419Z,5.90
2019-03-28T19:45:04.425Z,5.93
2019-03-28T19:47:30.264Z,5.80
2019-03-28T19:49:56.062Z,6.23
2019-03-28T19:52:21.857Z,6.23
2019-03-28T19:54:47.668Z,6.30
2019-03-28T19:57:13.453Z,5.80
2019-03-28T19:59:39.248Z,5.80
2019-03-28T20:02:05.041Z,5.80
2019-03-28T20:04:30.857Z,5.67
2019-03-28T20:06:56.645Z,5.53
2019-03-28T20:09:22.442Z,5.60
2019-03-28T20:11:48.231Z,5.90
2019-03-28T20:14:14.016Z,5.03
2019-03-28T20:16:39.808Z,4.97
2019-03-28T20:19:05.602Z,5.77
2019-03-28T20:21:31.401Z,4.90
2019-03-28T20:23:57.204Z,5.00
2019-03-28T20:26:22.998Z,4.70
2019-03-28T20:28:48.786Z,5.53
2019-03-28T20:31:14.581Z,4.53
2019-03-28T20:33:40.413Z,4.87
2019-03-28T20:36:30.059Z,5.10
2019-03-28T20:38:34.366Z,4.93
2019-03-28T20:41:00.416Z,5.30
2019-03-28T20:43:26.892Z,4.40
2019-03-28T20:45:52.907Z,4.30
2019-03-28T20:48:18.690Z,4.57
2019-03-28T20:50:44.549Z,4.77
2019-03-28T20:53:10.420Z,4.80
2019-03-28T20:55:36.332Z,4.50
2019-03-28T20:58:02.825Z,4.17
2019-03-28T21:00:38.841Z,5.43
2019-03-28T21:03:04.926Z,4.77
2019-03-28T21:05:30.777Z,4.87
2019-03-28T21:07:56.560Z,4.83
2019-03-28T21:10:23.143Z,5.00
2019-03-28T21:12:48.953Z,5.37
2019-03-28T21:15:14.732Z,5.07
2019-03-28T21:17:40.529Z,4.97
2019-03-28T21:20:06.414Z,4.77
2019-03-28T21:22:32.228Z,5.13
2019-03-28T21:24:58.026Z,4.93
2019-03-28T21:27:23.819Z,5.90
2019-03-28T21:29:51.013Z,5.37
2019-03-28T21:32:17.125Z,4.63
2019-03-28T21:34:42.914Z,5.00
2019-03-28T21:37:08.706Z,5.13
2019-03-28T21:39:34.815Z,5.07
2019-03-28T21:42:00.706Z,4.97
2019-03-28T21:44:26.568Z,5.50
2019-03-28T21:46:52.385Z,5.07
2019-03-28T21:49:18.165Z,5.67
2019-03-28T21:51:45.891Z,4.97
2019-03-28T21:54:11.667Z,5.07
2019-03-28T21:56:37.446Z,5.00
2019-03-28T21:59:03.260Z,4.97
2019-03-28T22:01:29.033Z,5.37
2019-03-28T22:03:54.845Z,4.67
2019-03-28T22:06:20.925Z,4.90
2019-03-28T22:08:46.729Z,5.47
2019-03-28T22:11:12.512Z,4.97
2019-03-28T22:13:38.310Z,5.60
2019-03-28T22:16:07.384Z,6.17
2019-03-28T22:18:31.893Z,6.07
2019-03-28T22:20:57.684Z,6.23
2019-03-28T22:23:23.483Z,5.67
2019-03-28T22:25:49.297Z,5.00
2019-03-28T22:28:15.090Z,5.03
2019-03-28T22:30:40.892Z,4.60
2019-03-28T22:33:06.712Z,5.00
2019-03-28T22:35:32.496Z,5.10
2019-03-28T22:37:58.681Z,5.23
2019-03-28T22:40:24.482Z,4.40
2019-03-28T22:42:50.267Z,4.67
2019-03-28T22:45:16.061Z,6.03
2019-03-28T22:47:41.843Z,5.07
2019-03-28T22:50:07.945Z,5.27
2019-03-28T22:52:33.747Z,5.60
2019-03-28T22:54:59.571Z,5.30
2019-03-28T22:57:25.347Z,5.10
2019-03-28T22:59:51.161Z,5.10
2019-03-28T23:02:16.935Z,5.43
2019-03-28T23:04:42.737Z,5.13
2019-03-28T23:07:11.068Z,5.63
2019-03-28T23:09:36.231Z,5.23
2019-03-28T23:12:02.018Z,5.90
2019-03-28T23:14:27.821Z,5.07
2019-03-28T23:16:55.073Z,6.13
2019-03-28T23:19:21.089Z,5.50
2019-03-28T23:21:46.869Z,5.23
2019-03-28T23:24:12.696Z,5.83
2019-03-28T23:26:38.497Z,5.70
2019-03-28T23:29:04.358Z,5.70
2019-03-28T23:31:30.167Z,6.30
2019-03-28T23:33:56.248Z,7.20
2019-03-28T23:36:22.752Z,7.17
2019-03-28T23:38:48.531Z,7.17
2019-03-28T23:41:14.331Z,7.17
2019-03-28T23:43:40.117Z,6.47
2019-03-28T23:46:05.909Z,7.00
2019-03-28T23:48:31.709Z,6.00
2019-03-28T23:50:58.708Z,6.13
2019-03-28T23:53:24.637Z,6.07
2019-03-28T23:55:50.434Z,6.80
2019-03-28T23:58:16.224Z,6.57
